Time;durP1;ratioP1;P1;durP2;ratioP2;P2;SDS_P1;SDS_P2;PMS_P1;PMS_P2;Temp;Humidity;BMP_temperature;BMP_pressure;BME280_temperature;BME280_humidity;BME280_pressure;Samples;Min_cycle;Max_cycle;Signal;HPM_P1;HPM_P2
2023/07/05 00:01:39;;;;;;;;;;;;;;;16.07;42.50;94956.78;4968119;28;20385;-74
2023/07/05 00:04:05;;;;;;;;;;;;;;;16.07;42.38;94949.53;4974007;28;20225;-78
2023/07/05 00:06:30;;;;;;;;;;;;;;;16.09;44.17;94944.78;4969251;28;19922;-78
2023/07/05 00:08:56;;;;;;;;;;;;;;;15.89;44.66;94955.78;4971125;28;19913;-76
2023/07/05 00:11:21;;;;;;;;;;;;;;;15.91;45.12;94944.84;4953244;28;19918;-75
2023/07/05 00:13:47;;;;;;;;;;;;;;;15.89;44.25;94937.00;4959340;28;20354;-78
2023/07/05 00:16:12;;;;;;;;;;;;;;;15.81;42.48;94938.13;4944358;28;20465;-77
2023/07/05 00:18:37;;;;;;;;;;;;;;;15.57;46.37;94923.84;4971126;28;20303;-76
2023/07/05 00:21:03;;;;;;;;;;;;;;;15.73;42.58;94912.47;4960758;28;19921;-74
2023/07/05 00:23:29;;;;;;;;;;;;;;;15.77;42.81;94915.50;4956414;28;20382;-74
2023/07/05 00:25:54;;;;;;;;;;;;;;;15.72;45.49;94904.63;4972241;28;19913;-78
2023/07/05 00:28:19;;;;;;;;;;;;;;;15.60;42.90;94904.56;4955339;28;19973;-76
2023/07/05 00:30:45;;;;;;;;;;;;;;;15.48;45.10;94910.72;4968617;28;20252;-78
2023/07/05 00:33:10;;;;;;;;;;;;;;;15.37;46.76;94898.06;4958955;28;19953;-77
2023/07/05 00:35:35;;;;;;;;;;;;;;;15.41;45.21;94896.56;4966579;28;19964;-76
2023/07/05 00:38:00;;;;;;;;;;;;;;;15.30;46.26;94892.75;4940781;28;19925;-76
2023/07/05 00:40:26;;;;;;;;;;;;;;;15.32;46.49;94888.00;4958428;28;19918;-78
2023/07/05 00:42:51;;;;;;;;;;;;;;;15.04;44.77;94872.47;4970940;28;20072;-77
2023/07/05 00:45:19;;;;;;;;;;;;;;;14.37;50.64;94882.00;4968339;28;19973;-75
2023/07/05 00:47:44;;;;;;;;;;;;;;;14.89;47.34;94862.94;4972182;28;19936;-77
2023/07/05 00:50:15;;;;;;;;;;;;;;;14.91;47.66;94863.56;4957847;28;19910;-78
2023/07/05 00:52:40;;;;;;;;;;;;;;;14.96;49.79;94858.34;4958140;28;20362;-77
2023/07/05 00:55:05;;;;;;;;;;;;;;;14.92;47.70;94857.16;4956305;28;19920;-76
2023/07/05 00:57:31;;;;;;;;;;;;;;;14.65;50.64;94849.38;4969693;28;20029;-78
2023/07/05 01:00:01;;;;;;;;;;;;;;;14.79;48.99;94835.88;4950625;28;20256;-76
2023/07/05 01:02:26;;;;;;;;;;;;;;;14.72;47.95;94836.72;4957509;28;19926;-75
2023/07/05 01:04:53;;;;;;;;;;;;;;;14.83;50.83;94845.09;4947559;28;19930;-78
2023/07/05 01:07:18;;;;;;;;;;;;;;;14.76;46.68;94830.97;4948822;28;19972;-77
2023/07/05 01:09:46;;;;;;;;;;;;;;;15.06;49.78;94832.88;4958816;28;19918;-75
2023/07/05 01:12:11;;;;;;;;;;;;;;;14.82;47.95;94830.06;4952974;28;20031;-78
2023/07/05 01:14:43;;;;;;;;;;;;;;;14.96;49.80;94828.06;4967361;28;20386;-78
2023/07/05 01:17:08;;;;;;;;;;;;;;;14.95;46.97;94829.06;4958516;28;19929;-76
2023/07/05 01:19:52;;;;;;;;;;;;;;;14.70;49.93;94828.13;4968729;28;19914;-75
2023/07/05 01:22:36;;;;;;;;;;;;;;;14.21;51.73;94842.19;4957379;28;19914;-75
2023/07/05 01:25:14;;;;;;;;;;;;;;;14.51;47.94;94834.50;4966580;28;20403;-75
2023/07/05 01:27:44;;;;;;;;;;;;;;;14.59;51.84;94832.34;4971301;28;19960;-77
2023/07/05 01:30:20;;;;;;;;;;;;;;;14.54;50.03;94823.31;4957643;28;20442;-76
2023/07/05 01:32:47;;;;;;;;;;;;;;;14.60;50.25;94833.16;4953689;28;19929;-76
2023/07/05 01:35:17;;;;;;;;;;;;;;;14.63;49.12;94826.53;4969186;28;19972;-76
2023/07/05 01:37:43;;;;;;;;;;;;;;;14.64;50.31;94826.31;4956733;28;19914;-75
2023/07/05 01:40:11;;;;;;;;;;;;;;;14.69;49.38;94825.66;4950966;28;20209;-74
2023/07/05 01:42:37;;;;;;;;;;;;;;;14.81;46.38;94818.53;4971930;28;20073;-77
2023/07/05 01:45:02;;;;;;;;;;;;;;;14.70;51.81;94813.88;4968832;28;19934;-76
2023/07/05 01:47:41;;;;;;;;;;;;;;;14.71;51.24;94807.47;4957393;28;19918;-75
2023/07/05 01:50:10;;;;;;;;;;;;;;;14.38;51.66;94798.78;4960601;28;19918;-77
2023/07/05 01:52:42;;;;;;;;;;;;;;;14.20;53.91;94799.56;4966999;28;19918;-77
2023/07/05 01:55:12;;;;;;;;;;;;;;;14.33;48.38;94780.72;4955775;28;20310;-75
2023/07/05 01:57:40;;;;;;;;;;;;;;;14.57;52.21;94790.75;4956915;28;19953;-75
2023/07/05 02:00:09;;;;;;;;;;;;;;;14.68;51.55;94775.78;4974114;28;19920;-78
2023/07/05 02:02:37;;;;;;;;;;;;;;;14.24;51.53;94784.72;4959067;28;19941;-77
2023/07/05 02:05:03;;;;;;;;;;;;;;;14.78;52.43;94794.03;4957471;28;19918;-78
2023/07/05 02:07:29;;;;;;;;;;;;;;;14.81;52.95;94785.56;4956353;28;19924;-78
2023/07/05 02:09:55;;;;;;;;;;;;;;;14.64;54.06;94788.00;4955409;28;19973;-76
2023/07/05 02:12:20;;;;;;;;;;;;;;;14.57;53.57;94780.03;4967576;28;19929;-77
2023/07/05 02:14:46;;;;;;;;;;;;;;;14.90;51.93;94778.03;4971210;28;19913;-76
2023/07/05 02:17:11;;;;;;;;;;;;;;;14.61;49.44;94762.47;4953356;28;20299;-77
2023/07/05 02:19:37;;;;;;;;;;;;;;;14.82;53.18;94779.97;4975915;28;19933;-75
2023/07/05 02:22:02;;;;;;;;;;;;;;;14.51;54.68;94772.91;4970307;28;20368;-76
2023/07/05 02:24:27;;;;;;;;;;;;;;;14.94;53.70;94766.63;4963521;28;19948;-76
2023/07/05 02:26:54;;;;;;;;;;;;;;;15.03;52.01;94758.28;4972315;28;20137;-77
2023/07/05 02:29:19;;;;;;;;;;;;;;;14.68;52.88;94754.34;4972186;28;20432;-75
2023/07/05 02:31:45;;;;;;;;;;;;;;;14.72;54.38;94755.53;4975581;28;20000;-76
2023/07/05 02:34:10;;;;;;;;;;;;;;;15.01;51.51;94761.19;4974167;28;20445;-77
2023/07/05 02:36:35;;;;;;;;;;;;;;;14.92;50.43;94759.88;4970390;28;20302;-76
2023/07/05 02:39:01;;;;;;;;;;;;;;;14.95;53.02;94751.34;4974450;28;20236;-77
2023/07/05 02:41:26;;;;;;;;;;;;;;;14.78;53.53;94746.63;4961848;28;20206;-77
2023/07/05 02:43:51;;;;;;;;;;;;;;;14.98;53.01;94738.34;4965990;28;19954;-76
2023/07/05 02:46:16;;;;;;;;;;;;;;;14.79;52.70;94728.72;4966987;28;19948;-76
2023/07/05 02:48:42;;;;;;;;;;;;;;;15.07;53.99;94738.00;4972609;28;19921;-77
2023/07/05 02:51:07;;;;;;;;;;;;;;;14.67;52.09;94729.44;4970304;28;19922;-77
2023/07/05 02:53:32;;;;;;;;;;;;;;;14.30;55.92;94737.50;4944120;28;19921;-75
2023/07/05 02:55:57;;;;;;;;;;;;;;;14.41;54.21;94731.41;4971385;28;20375;-75
2023/07/05 02:58:23;;;;;;;;;;;;;;;14.37;55.79;94740.09;4963850;28;19937;-77
2023/07/05 03:00:48;;;;;;;;;;;;;;;14.18;56.40;94730.22;4971177;28;20100;-77
2023/07/05 03:03:13;;;;;;;;;;;;;;;14.21;54.82;94723.59;4961293;28;20264;-75
2023/07/05 03:05:38;;;;;;;;;;;;;;;14.40;55.07;94713.69;4974708;28;19992;-77
2023/07/05 03:08:04;;;;;;;;;;;;;;;14.48;55.74;94715.25;4970978;28;19925;-77
2023/07/05 03:10:29;;;;;;;;;;;;;;;14.56;52.31;94685.50;4962061;28;19914;-75
2023/07/05 03:12:54;;;;;;;;;;;;;;;14.30;54.39;94682.09;4973602;28;19918;-76
2023/07/05 03:15:19;;;;;;;;;;;;;;;14.69;55.03;94681.81;4979869;28;19917;-76
2023/07/05 03:17:45;;;;;;;;;;;;;;;14.60;55.09;94683.16;4973638;28;19918;-79
2023/07/05 03:20:10;;;;;;;;;;;;;;;14.59;53.21;94697.63;4969619;28;20179;-77
2023/07/05 03:22:35;;;;;;;;;;;;;;;14.24;55.82;94706.28;4976258;28;20231;-76
2023/07/05 03:25:01;;;;;;;;;;;;;;;14.53;55.22;94703.88;4974305;28;19924;-78
2023/07/05 03:27:26;;;;;;;;;;;;;;;14.33;55.51;94704.94;4964766;28;19917;-75
2023/07/05 03:29:52;;;;;;;;;;;;;;;13.13;59.07;94708.50;4962813;28;19914;-76
2023/07/05 03:32:17;;;;;;;;;;;;;;;13.46;58.42;94715.41;4972495;28;19932;-77
2023/07/05 03:34:42;;;;;;;;;;;;;;;13.93;56.52;94700.81;4962018;28;19913;-75
2023/07/05 03:37:07;;;;;;;;;;;;;;;14.21;53.25;94697.66;4962499;28;19910;-75
2023/07/05 03:39:33;;;;;;;;;;;;;;;14.21;56.45;94704.84;4977053;28;20073;-76
2023/07/05 03:41:58;;;;;;;;;;;;;;;13.68;57.72;94715.03;4971147;28;20207;-77
2023/07/05 03:44:24;;;;;;;;;;;;;;;12.63;61.83;94710.81;4967668;28;19914;-75
2023/07/05 03:46:49;;;;;;;;;;;;;;;13.41;57.33;94700.06;4977377;28;19929;-75
2023/07/05 03:49:15;;;;;;;;;;;;;;;13.79;58.15;94705.47;4962284;28;20490;-77
2023/07/05 03:51:40;;;;;;;;;;;;;;;13.64;58.64;94700.47;4970796;28;19988;-75
2023/07/05 03:54:05;;;;;;;;;;;;;;;13.60;58.54;94704.63;4969687;28;20426;-75
2023/07/05 03:56:31;;;;;;;;;;;;;;;13.81;58.30;94692.69;4973897;28;20123;-77
2023/07/05 03:58:57;;;;;;;;;;;;;;;13.96;57.86;94689.69;4977604;28;19942;-75
2023/07/05 04:01:23;;;;;;;;;;;;;;;13.86;58.02;94684.81;4960740;28;19917;-75
2023/07/05 04:03:49;;;;;;;;;;;;;;;12.75;61.74;94721.63;4971279;28;19972;-74
2023/07/05 04:06:14;;;;;;;;;;;;;;;11.99;64.78;94742.63;4962626;28;19948;-75
2023/07/05 04:08:40;;;;;;;;;;;;;;;11.01;69.86;94772.28;4964097;28;19922;-72
2023/07/05 04:11:05;;;;;;;;;;;;;;;9.92;71.73;94778.13;4960471;28;20028;-75
2023/07/05 04:13:30;;;;;;;;;;;;;;;8.90;75.38;94781.72;4978404;28;19913;-74
2023/07/05 04:16:05;;;;;;;;;;;;;;;9.20;74.66;94797.59;4969553;28;20393;-73
2023/07/05 04:18:31;;;;;;;;;;;;;;;9.35;72.60;94791.41;4974541;28;19964;-74
2023/07/05 04:20:56;;;;;;;;;;;;;;;9.14;73.24;94790.38;4962500;28;19944;-74
2023/07/05 04:23:21;;;;;;;;;;;;;;;9.96;70.00;94784.69;4963408;28;20286;-74
2023/07/05 04:25:46;;;;;;;;;;;;;;;10.15;68.20;94782.41;4974473;28;20627;-74
2023/07/05 04:28:12;;;;;;;;;;;;;;;10.68;66.15;94771.19;4964399;28;19997;-74
2023/07/05 04:30:37;;;;;;;;;;;;;;;11.29;64.07;94775.88;4969021;28;19968;-76
2023/07/05 04:33:02;;;;;;;;;;;;;;;11.06;63.03;94785.03;4968035;28;19925;-76
2023/07/05 04:35:27;;;;;;;;;;;;;;;11.21;62.69;94779.53;4970547;28;20430;-75
2023/07/05 04:37:52;;;;;;;;;;;;;;;11.00;63.38;94782.16;4959647;28;19914;-76
2023/07/05 04:40:20;;;;;;;;;;;;;;;11.16;60.70;94780.16;4968013;28;20002;-77
2023/07/05 04:42:45;;;;;;;;;;;;;;;11.37;62.23;94773.84;4972903;28;20389;-77
2023/07/05 04:45:10;;;;;;;;;;;;;;;11.66;61.60;94770.94;4972293;28;19937;-77
2023/07/05 04:47:35;;;;;;;;;;;;;;;11.52;60.03;94775.47;4968974;28;20000;-74
2023/07/05 04:50:00;;;;;;;;;;;;;;;11.61;61.13;94768.94;4968287;28;19918;-77
2023/07/05 04:52:26;;;;;;;;;;;;;;;11.69;58.55;94773.22;4965631;28;19933;-75
2023/07/05 04:54:52;;;;;;;;;;;;;;;11.38;60.82;94771.97;4968909;28;20005;-75
2023/07/05 04:57:17;;;;;;;;;;;;;;;11.22;61.08;94781.19;4972168;28;19953;-74
2023/07/05 04:59:43;;;;;;;;;;;;;;;10.73;62.40;94791.88;4967985;28;19949;-75
2023/07/05 05:02:10;;;;;;;;;;;;;;;10.57;63.07;94807.19;4972112;28;19922;-77
2023/07/05 05:04:35;;;;;;;;;;;;;;;9.95;63.77;94834.41;4970346;28;20024;-76
2023/07/05 05:07:00;;;;;;;;;;;;;;;9.19;67.14;94825.16;4957282;28;20016;-76
2023/07/05 05:09:25;;;;;;;;;;;;;;;9.55;64.41;94829.59;4966034;28;20360;-76
2023/07/05 05:11:51;;;;;;;;;;;;;;;8.96;66.12;94852.69;4968336;28;19998;-78
2023/07/05 05:14:16;;;;;;;;;;;;;;;8.74;65.35;94835.88;4957657;28;19918;-78
2023/07/05 05:16:41;;;;;;;;;;;;;;;8.73;66.05;94848.31;4958533;28;19921;-76
2023/07/05 05:19:07;;;;;;;;;;;;;;;8.72;63.77;94867.91;4970177;28;20196;-77
2023/07/05 05:21:32;;;;;;;;;;;;;;;8.17;65.59;94857.56;4944016;28;19928;-78
2023/07/05 05:23:57;;;;;;;;;;;;;;;8.08;65.04;94864.78;4957422;28;20441;-77
2023/07/05 05:26:22;;;;;;;;;;;;;;;8.34;64.97;94875.97;4969113;28;19917;-76
2023/07/05 05:28:47;;;;;;;;;;;;;;;8.92;63.80;94862.84;4963403;28;19921;-77
2023/07/05 05:31:13;;;;;;;;;;;;;;;8.77;62.12;94870.00;4964549;28;20287;-78
2023/07/05 05:33:38;;;;;;;;;;;;;;;8.47;63.20;94862.88;4962095;28;20323;-77
2023/07/05 05:36:03;;;;;;;;;;;;;;;8.71;62.00;94857.47;4942985;28;19922;-76
2023/07/05 05:38:29;;;;;;;;;;;;;;;8.75;60.42;94874.66;4956408;28;20516;-78
2023/07/05 05:40:59;;;;;;;;;;;;;;;8.29;63.51;94872.03;4964213;28;19933;-78
2023/07/05 05:43:24;;;;;;;;;;;;;;;8.09;64.03;94873.56;4963682;28;19926;-76
2023/07/05 05:45:49;;;;;;;;;;;;;;;8.45;63.19;94862.25;4963348;28;19929;-76
2023/07/05 05:48:15;;;;;;;;;;;;;;;8.41;61.68;94863.63;4968818;28;19918;-79
2023/07/05 05:50:40;;;;;;;;;;;;;;;8.38;62.13;94856.84;4969904;28;20145;-78
2023/07/05 05:53:05;;;;;;;;;;;;;;;8.02;60.76;94868.97;4967321;28;19926;-76
2023/07/05 05:55:30;;;;;;;;;;;;;;;8.54;61.91;94869.09;4969600;28;19930;-76
2023/07/05 05:57:56;;;;;;;;;;;;;;;8.93;61.23;94876.94;4963814;28;20386;-79
2023/07/05 06:00:21;;;;;;;;;;;;;;;9.16;61.19;94862.72;4972717;28;19925;-77
2023/07/05 06:02:46;;;;;;;;;;;;;;;9.54;59.55;94866.97;4966251;28;19965;-77
2023/07/05 06:05:12;;;;;;;;;;;;;;;9.84;58.22;94865.03;4965412;28;20376;-77
2023/07/05 06:07:37;;;;;;;;;;;;;;;9.91;56.19;94888.16;4967171;28;19964;-78
2023/07/05 06:10:03;;;;;;;;;;;;;;;9.90;56.05;94891.84;4965470;28;19929;-75
2023/07/05 06:12:28;;;;;;;;;;;;;;;9.50;55.02;94901.09;4935028;28;19958;-78
2023/07/05 06:14:53;;;;;;;;;;;;;;;9.56;54.67;94889.69;4953215;28;19921;-76
2023/07/05 06:17:18;;;;;;;;;;;;;;;9.69;54.37;94906.81;4964940;28;19925;-76
2023/07/05 06:19:44;;;;;;;;;;;;;;;9.11;53.91;94905.75;4974871;28;19914;-78
2023/07/05 06:22:09;;;;;;;;;;;;;;;8.71;56.18;94926.47;4958298;28;20172;-77
2023/07/05 06:24:34;;;;;;;;;;;;;;;9.37;53.62;94920.38;4970631;28;20011;-76
2023/07/05 06:27:00;;;;;;;;;;;;;;;9.24;54.53;94918.38;4974817;28;19948;-77
2023/07/05 06:29:25;;;;;;;;;;;;;;;9.88;53.00;94920.44;4959114;28;20410;-77
2023/07/05 06:31:50;;;;;;;;;;;;;;;9.74;53.31;94938.94;4969466;28;19918;-79
2023/07/05 06:34:16;;;;;;;;;;;;;;;9.48;52.50;94926.22;4971606;28;20486;-76
2023/07/05 06:36:41;;;;;;;;;;;;;;;8.80;54.71;94942.13;4970069;28;19922;-79
2023/07/05 06:39:06;;;;;;;;;;;;;;;8.72;54.14;94952.00;4946336;28;19932;-75
2023/07/05 06:41:31;;;;;;;;;;;;;;;8.36;55.87;94954.34;4953414;28;19926;-76
2023/07/05 06:43:57;;;;;;;;;;;;;;;8.37;54.91;94984.34;4974990;28;19926;-78
2023/07/05 06:46:22;;;;;;;;;;;;;;;7.79;57.21;94965.22;4962058;28;19910;-77
2023/07/05 06:48:48;;;;;;;;;;;;;;;7.57;56.90;94969.50;4962706;28;20012;-78
2023/07/05 06:51:14;;;;;;;;;;;;;;;7.88;57.36;94970.47;4958941;28;20508;-76
2023/07/05 06:53:39;;;;;;;;;;;;;;;7.90;57.66;94971.13;4974880;28;20309;-79
2023/07/05 06:56:04;;;;;;;;;;;;;;;8.28;57.07;94954.41;4965538;28;20027;-78
2023/07/05 06:58:29;;;;;;;;;;;;;;;8.40;56.26;94968.88;4969895;28;19930;-76
2023/07/05 07:00:54;;;;;;;;;;;;;;;8.30;55.31;94969.13;4961785;28;19918;-78
2023/07/05 07:03:20;;;;;;;;;;;;;;;7.90;56.51;94979.91;4973471;28;19921;-79
2023/07/05 07:05:50;;;;;;;;;;;;;;;8.14;55.92;94977.25;4943510;28;20519;-76
2023/07/05 07:08:16;;;;;;;;;;;;;;;7.64;57.02;95002.22;4967669;28;20468;-78
2023/07/05 07:10:41;;;;;;;;;;;;;;;6.64;59.80;94996.50;4974032;28;20026;-77
2023/07/05 07:13:06;;;;;;;;;;;;;;;6.60;61.00;95001.28;4969200;28;20053;-76
2023/07/05 07:15:31;;;;;;;;;;;;;;;6.80;60.23;95005.41;4968262;28;19965;-76
2023/07/05 07:17:57;;;;;;;;;;;;;;;7.25;56.76;94995.16;4952989;28;20609;-76
2023/07/05 07:20:25;;;;;;;;;;;;;;;7.73;56.32;94999.53;4955565;28;19958;-75
2023/07/05 07:22:50;;;;;;;;;;;;;;;7.49;55.07;94980.13;4957956;28;19950;-76
2023/07/05 07:25:15;;;;;;;;;;;;;;;8.54;52.65;94983.16;4970110;28;19955;-79
2023/07/05 07:27:41;;;;;;;;;;;;;;;8.64;52.17;94990.88;4970130;28;19965;-78
2023/07/05 07:30:06;;;;;;;;;;;;;;;8.78;51.15;94968.00;4974647;28;20019;-78
2023/07/05 07:32:31;;;;;;;;;;;;;;;9.16;49.98;94969.78;4960006;28;19917;-76
2023/07/05 07:34:57;;;;;;;;;;;;;;;7.91;52.68;94978.91;4968399;28;20343;-79
2023/07/05 07:37:23;;;;;;;;;;;;;;;8.63;50.78;94977.78;4963035;28;19929;-78
2023/07/05 07:39:48;;;;;;;;;;;;;;;8.71;50.73;94977.72;4966110;28;19925;-77
2023/07/05 07:42:13;;;;;;;;;;;;;;;8.36;52.41;94991.47;4966887;28;19954;-77
2023/07/05 07:44:38;;;;;;;;;;;;;;;9.18;50.04;94986.34;4950963;28;19980;-79
2023/07/05 07:47:04;;;;;;;;;;;;;;;8.47;51.02;95014.06;4935675;28;20295;-79
2023/07/05 07:49:29;;;;;;;;;;;;;;;8.66;51.61;95006.63;4965127;28;19957;-79
2023/07/05 07:51:55;;;;;;;;;;;;;;;8.52;52.04;95002.94;4966460;28;19977;-79
2023/07/05 07:54:25;;;;;;;;;;;;;;;8.23;52.67;94980.66;4952050;28;19917;-79
2023/07/05 07:56:51;;;;;;;;;;;;;;;8.89;51.85;94987.16;4953570;28;19922;-79
2023/07/05 07:59:16;;;;;;;;;;;;;;;8.84;51.67;94997.50;4959721;28;20416;-78
2023/07/05 08:01:41;;;;;;;;;;;;;;;8.49;54.65;94998.81;4963099;28;20322;-76
2023/07/05 08:04:09;;;;;;;;;;;;;;;8.95;51.79;95002.38;4948988;28;19922;-79
2023/07/05 08:06:36;;;;;;;;;;;;;;;9.12;53.07;95003.03;4952120;28;20514;-77
2023/07/05 08:09:01;;;;;;;;;;;;;;;9.42;52.90;95023.44;4953830;28;19917;-77
2023/07/05 08:11:26;;;;;;;;;;;;;;;9.55;51.49;95033.38;4969891;28;19918;-76
2023/07/05 08:13:52;;;;;;;;;;;;;;;9.49;51.24;95007.56;4945322;28;19957;-79
2023/07/05 08:16:17;;;;;;;;;;;;;;;9.46;51.53;95014.88;4966208;28;20001;-79
2023/07/05 08:18:45;;;;;;;;;;;;;;;9.82;50.48;95015.91;4955033;28;19914;-76
2023/07/05 08:21:12;;;;;;;;;;;;;;;9.71;49.53;95011.06;4958875;28;20394;-75
2023/07/05 08:23:38;;;;;;;;;;;;;;;9.50;50.53;95035.78;4974521;28;20371;-79
2023/07/05 08:26:03;;;;;;;;;;;;;;;9.38;50.65;95024.81;4940961;28;20283;-77
2023/07/05 08:28:28;;;;;;;;;;;;;;;9.08;50.18;95033.63;4968894;28;20001;-77
2023/07/05 08:31:03;;;;;;;;;;;;;;;9.16;50.76;95051.28;4949271;28;20389;-79
2023/07/05 08:33:29;;;;;;;;;;;;;;;9.29;50.91;95056.75;4955588;28;19914;-76
2023/07/05 08:36:08;;;;;;;;;;;;;;;8.57;51.96;95065.06;4957811;28;19955;-77
2023/07/05 08:38:33;;;;;;;;;;;;;;;8.15;53.57;95053.13;4973773;28;20014;-77
2023/07/05 08:41:09;;;;;;;;;;;;;;;8.43;52.49;95047.28;4965800;28;19984;-78
2023/07/05 08:43:35;;;;;;;;;;;;;;;8.68;51.84;95070.97;4949220;28;20459;-77
2023/07/05 08:46:02;;;;;;;;;;;;;;;8.90;51.48;95079.03;4968518;28;19943;-78
2023/07/05 08:48:27;;;;;;;;;;;;;;;8.94;51.78;95077.69;4954612;28;20206;-76
2023/07/05 08:50:54;;;;;;;;;;;;;;;9.31;50.38;95065.38;4966034;28;20079;-79
2023/07/05 08:53:20;;;;;;;;;;;;;;;9.35;50.32;95065.81;4953852;28;19921;-79
2023/07/05 08:55:53;;;;;;;;;;;;;;;9.38;51.09;95064.66;4968534;28;20445;-75
2023/07/05 08:58:39;;;;;;;;;;;;;;;9.46;50.38;95083.97;4953268;28;20474;-77
2023/07/05 09:01:04;;;;;;;;;;;;;;;9.03;50.50;95073.16;4958286;28;20010;-76
2023/07/05 09:03:30;;;;;;;;;;;;;;;9.41;49.26;95067.75;4958452;28;20653;-75
2023/07/05 09:05:55;;;;;;;;;;;;;;;9.65;49.20;95079.09;4958206;28;19929;-76
2023/07/05 09:08:36;;;;;;;;;;;;;;;9.64;49.33;95081.94;4968458;28;20489;-78
2023/07/05 09:11:03;;;;;;;;;;;;;;;9.74;49.58;95085.13;4970168;28;20559;-76
2023/07/05 09:13:34;;;;;;;;;;;;;;;9.90;48.86;95085.94;4954959;28;20246;-74
2023/07/05 09:16:18;;;;;;;;;;;;;;;10.43;47.86;95087.53;4971283;28;20398;-79
2023/07/05 09:18:55;;;;;;;;;;;;;;;9.87;47.70;95097.78;4958432;28;20298;-77
2023/07/05 09:21:29;;;;;;;;;;;;;;;10.93;47.59;95102.72;4960596;28;20010;-76
2023/07/05 09:23:55;;;;;;;;;;;;;;;10.00;47.84;95110.41;4963234;28;19925;-76
2023/07/05 09:26:24;;;;;;;;;;;;;;;9.62;47.61;95107.91;4948895;28;19918;-78
2023/07/05 09:29:09;;;;;;;;;;;;;;;9.44;48.71;95125.00;4967402;28;19956;-76
2023/07/05 09:31:36;;;;;;;;;;;;;;;9.82;47.39;95129.41;4950046;28;20347;-75
2023/07/05 09:34:19;;;;;;;;;;;;;;;9.29;47.45;95136.44;4953551;28;20033;-78
2023/07/05 09:36:44;;;;;;;;;;;;;;;9.51;48.07;95133.06;4948832;28;20130;-76
2023/07/05 09:39:15;;;;;;;;;;;;;;;9.66;46.74;95133.91;4955194;28;20437;-76
2023/07/05 09:41:41;;;;;;;;;;;;;;;9.65;48.21;95148.19;4962970;28;20407;-76
2023/07/05 09:44:06;;;;;;;;;;;;;;;9.41;48.38;95138.66;4954919;28;19918;-75
2023/07/05 09:46:34;;;;;;;;;;;;;;;9.99;46.85;95140.66;4953145;28;19928;-76
2023/07/05 09:49:00;;;;;;;;;;;;;;;9.98;47.41;95144.31;4941676;28;19921;-76
2023/07/05 09:51:25;;;;;;;;;;;;;;;9.69;47.45;95136.19;4969686;28;19922;-77
2023/07/05 09:53:58;;;;;;;;;;;;;;;10.03;47.42;95149.91;4957865;28;19928;-78
2023/07/05 09:56:30;;;;;;;;;;;;;;;10.15;47.13;95158.28;4952661;28;19922;-77
2023/07/05 09:59:07;;;;;;;;;;;;;;;10.46;47.04;95129.75;4964444;28;20076;-76
2023/07/05 10:01:33;;;;;;;;;;;;;;;10.84;47.38;95134.81;4963361;28;19914;-76
2023/07/05 10:04:00;;;;;;;;;;;;;;;11.06;45.88;95150.78;4954726;28;19988;-77
2023/07/05 10:06:26;;;;;;;;;;;;;;;10.88;46.38;95168.03;4968106;28;19914;-76
2023/07/05 10:08:52;;;;;;;;;;;;;;;10.72;47.04;95147.00;4943494;28;19921;-74
2023/07/05 10:11:20;;;;;;;;;;;;;;;10.13;47.45;95159.47;4965139;28;20052;-76
2023/07/05 10:13:45;;;;;;;;;;;;;;;11.18;45.52;95151.09;4970176;28;19913;-76
2023/07/05 10:16:11;;;;;;;;;;;;;;;10.67;45.09;95178.69;4961811;28;20445;-76
2023/07/05 10:18:37;;;;;;;;;;;;;;;10.66;44.94;95171.69;4965279;28;20283;-75
2023/07/05 10:21:03;;;;;;;;;;;;;;;10.28;44.79;95170.06;4954352;28;20032;-75
2023/07/05 10:23:30;;;;;;;;;;;;;;;10.20;44.91;95189.66;4962688;28;20007;-75
2023/07/05 10:25:56;;;;;;;;;;;;;;;10.58;44.64;95164.69;4959005;28;20115;-75
2023/07/05 10:28:26;;;;;;;;;;;;;;;10.42;44.68;95163.91;4953227;28;19952;-75
2023/07/05 10:30:52;;;;;;;;;;;;;;;10.73;45.76;95168.09;4966084;28;20325;-78
2023/07/05 10:33:27;;;;;;;;;;;;;;;10.86;45.67;95170.06;4947747;28;20014;-77
2023/07/05 10:36:12;;;;;;;;;;;;;;;11.02;46.96;95165.50;4960093;28;19921;-77
2023/07/05 10:38:46;;;;;;;;;;;;;;;12.12;43.80;95172.19;4961709;28;19914;-77
2023/07/05 10:41:17;;;;;;;;;;;;;;;11.75;40.97;95163.56;4963736;28;19956;-78
2023/07/05 10:43:42;;;;;;;;;;;;;;;11.42;40.38;95186.31;4966457;28;20059;-78
2023/07/05 10:46:08;;;;;;;;;;;;;;;11.33;41.51;95198.97;4955974;28;20004;-77
2023/07/05 10:48:42;;;;;;;;;;;;;;;11.28;42.21;95190.72;4957629;28;19922;-77
2023/07/05 10:51:17;;;;;;;;;;;;;;;11.89;42.43;95185.78;4954049;28;19960;-79
2023/07/05 10:53:43;;;;;;;;;;;;;;;11.60;42.40;95191.16;4958355;28;20001;-76
2023/07/05 10:56:16;;;;;;;;;;;;;;;11.26;41.32;95203.44;4955990;28;20442;-76
2023/07/05 10:58:45;;;;;;;;;;;;;;;10.96;40.87;95200.88;4942013;28;19952;-77
2023/07/05 11:01:18;;;;;;;;;;;;;;;10.59;41.42;95204.41;4949431;28;19914;-77
2023/07/05 11:03:44;;;;;;;;;;;;;;;11.12;42.49;95203.31;4955193;28;20513;-78
2023/07/05 11:06:09;;;;;;;;;;;;;;;10.54;43.85;95222.78;4964687;28;20164;-76
2023/07/05 11:08:37;;;;;;;;;;;;;;;10.74;41.40;95191.03;4970824;28;19971;-74
2023/07/05 11:11:02;;;;;;;;;;;;;;;11.38;41.73;95204.56;4952318;28;20473;-75
2023/07/05 11:13:28;;;;;;;;;;;;;;;11.69;39.96;95209.69;4938243;28;19910;-77
2023/07/05 11:15:53;;;;;;;;;;;;;;;11.85;39.79;95209.38;4951472;28;19922;-75
2023/07/05 11:18:19;;;;;;;;;;;;;;;12.44;39.43;95211.72;4967116;28;20001;-75
2023/07/05 11:20:46;;;;;;;;;;;;;;;12.67;40.42;95192.72;4954176;28;19922;-75
2023/07/05 11:23:11;;;;;;;;;;;;;;;12.82;41.27;95193.56;4967284;28;19930;-74
2023/07/05 11:25:52;;;;;;;;;;;;;;;11.94;38.40;95219.88;4952995;28;19918;-75
2023/07/05 11:28:36;;;;;;;;;;;;;;;11.21;37.68;95190.69;4963763;28;19922;-74
2023/07/05 11:31:05;;;;;;;;;;;;;;;11.06;39.37;95227.19;4952450;28;19980;-75
2023/07/05 11:33:30;;;;;;;;;;;;;;;11.28;40.58;95237.88;4943395;28;19976;-74
2023/07/05 11:35:57;;;;;;;;;;;;;;;11.34;39.89;95210.44;4948890;28;19956;-75
2023/07/05 11:38:40;;;;;;;;;;;;;;;11.65;40.19;95222.56;4955079;28;20451;-74
2023/07/05 11:41:09;;;;;;;;;;;;;;;12.03;40.97;95216.84;4964657;28;20024;-75
2023/07/05 11:43:36;;;;;;;;;;;;;;;12.14;39.82;95218.16;4957047;28;19917;-74
2023/07/05 11:46:02;;;;;;;;;;;;;;;12.10;38.75;95218.78;4966035;28;20026;-75
2023/07/05 11:48:41;;;;;;;;;;;;;;;12.28;38.72;95226.25;4968593;28;20086;-73
2023/07/05 11:51:18;;;;;;;;;;;;;;;11.33;39.57;95246.13;4960875;28;19969;-74
2023/07/05 11:53:43;;;;;;;;;;;;;;;11.35;39.83;95234.25;4951417;28;19988;-73
2023/07/05 11:56:09;;;;;;;;;;;;;;;11.56;39.82;95229.88;4959828;28;19921;-76
2023/07/05 11:58:35;;;;;;;;;;;;;;;11.51;39.61;95226.97;4978912;28;19981;-76
2023/07/05 12:01:01;;;;;;;;;;;;;;;11.65;39.23;95227.91;4978504;28;19934;-75
2023/07/05 12:03:28;;;;;;;;;;;;;;;11.98;38.25;95237.13;4965960;28;19925;-77
2023/07/05 12:06:17;;;;;;;;;;;;;;;12.21;37.90;95252.88;4957007;28;19956;-77
2023/07/05 12:08:43;;;;;;;;;;;;;;;12.36;37.56;95255.44;4966931;28;19925;-76
2023/07/05 12:11:08;;;;;;;;;;;;;;;12.90;36.94;95244.97;4960331;28;19944;-76
2023/07/05 12:13:34;;;;;;;;;;;;;;;12.29;37.75;95270.59;4956769;28;20649;-75
2023/07/05 12:16:00;;;;;;;;;;;;;;;12.98;37.78;95251.94;4953666;28;19918;-74
2023/07/05 12:18:27;;;;;;;;;;;;;;;12.95;36.52;95235.50;4950382;28;19972;-74
2023/07/05 12:20:58;;;;;;;;;;;;;;;12.86;37.02;95251.72;4945301;28;19921;-74
2023/07/05 12:23:23;;;;;;;;;;;;;;;13.47;37.84;95245.66;4954797;28;20240;-75
2023/07/05 12:25:50;;;;;;;;;;;;;;;12.70;37.75;95255.56;4951433;28;19926;-74
2023/07/05 12:28:16;;;;;;;;;;;;;;;12.26;37.67;95261.16;4951929;28;20316;-74
2023/07/05 12:30:41;;;;;;;;;;;;;;;12.84;37.16;95267.13;4957715;28;20283;-74
2023/07/05 12:33:20;;;;;;;;;;;;;;;13.11;36.73;95240.50;4968514;28;19929;-74
2023/07/05 12:35:45;;;;;;;;;;;;;;;13.29;36.51;95265.78;4961501;28;20443;-74
2023/07/05 12:38:14;;;;;;;;;;;;;;;12.69;37.28;95277.97;4966584;28;19929;-75
2023/07/05 12:40:40;;;;;;;;;;;;;;;13.54;37.27;95255.31;4953621;28;19918;-74
2023/07/05 12:43:05;;;;;;;;;;;;;;;13.65;36.18;95245.03;4970692;28;19925;-75
2023/07/05 12:45:32;;;;;;;;;;;;;;;13.67;36.30;95251.00;4949472;28;19949;-75
2023/07/05 12:47:57;;;;;;;;;;;;;;;13.76;35.47;95247.09;4962484;28;19918;-75
2023/07/05 12:50:23;;;;;;;;;;;;;;;13.75;36.23;95258.00;4969864;28;20454;-74